createdAt,value
2019-03-28T00:02:15.234Z,99.90
2019-03-28T00:04:45.314Z,99.90
2019-03-28T00:07:15.414Z,99.90
2019-03-28T00:09:47.514Z,99.90
2019-03-28T00:12:17.594Z,99.90
2019-03-28T00:14:47.658Z,99.90
2019-03-28T00:17:17.810Z,99.90
2019-03-28T00:19:47.898Z,99.90
2019-03-28T00:22:32.390Z,99.90
2019-03-28T00:25:08.524Z,99.90
2019-03-28T00:27:38.612Z,99.90
2019-03-28T00:30:08.991Z,99.90
2019-03-28T00:32:39.089Z,99.90
2019-03-28T00:35:11.402Z,99.90
2019-03-28T00:37:46.078Z,99.90
2019-03-28T00:40:18.083Z,99.90
2019-03-28T00:42:48.190Z,99.90
2019-03-28T00:45:20.266Z,99.90
2019-03-28T00:47:52.324Z,99.90
2019-03-28T00:50:23.387Z,99.90
2019-03-28T00:52:54.588Z,99.90
2019-03-28T00:55:25.634Z,99.90
2019-03-28T00:57:55.707Z,99.90
2019-03-28T01:00:25.999Z,99.90
2019-03-28T01:02:56.083Z,99.90
2019-03-28T01:05:26.171Z,99.90
2019-03-28T01:07:56.310Z,99.90
2019-03-28T01:10:33.143Z,99.90
2019-03-28T01:13:03.214Z,99.90
2019-03-28T01:15:33.325Z,99.90
2019-03-28T01:18:03.416Z,99.90
2019-03-28T01:20:36.200Z,99.90
2019-03-28T01:23:06.267Z,99.90
2019-03-28T01:25:38.386Z,99.90
2019-03-28T01:28:10.423Z,99.90
2019-03-28T01:30:40.564Z,99.90
2019-03-28T01:33:20.470Z,99.90
2019-03-28T01:35:53.750Z,99.90
2019-03-28T01:38:24.410Z,99.90
2019-03-28T01:40:56.454Z,99.90
2019-03-28T01:43:33.642Z,99.90
2019-03-28T01:46:13.598Z,99.90
2019-03-28T01:48:46.330Z,99.90
2019-03-28T01:51:22.236Z,99.90
2019-03-28T01:53:57.250Z,99.90
2019-03-28T01:56:28.334Z,99.90
2019-03-28T01:58:58.418Z,99.90
2019-03-28T02:01:30.114Z,99.90
2019-03-28T02:04:03.374Z,99.90
2019-03-28T02:06:35.422Z,99.90
2019-03-28T02:09:07.042Z,99.90
2019-03-28T02:11:39.030Z,99.90
2019-03-28T02:14:16.079Z,99.90
2019-03-28T02:16:46.221Z,99.90
2019-03-28T02:19:19.272Z,99.90
2019-03-28T02:21:50.374Z,99.90
2019-03-28T02:24:22.248Z,99.90
2019-03-28T02:26:52.346Z,99.90
2019-03-28T02:29:23.438Z,99.90
2019-03-28T02:31:53.522Z,99.90
2019-03-28T02:34:25.640Z,99.90
2019-03-28T02:36:55.763Z,99.90
2019-03-28T02:39:32.015Z,99.90
2019-03-28T02:42:04.028Z,99.90
2019-03-28T02:44:34.100Z,99.90
2019-03-28T02:47:10.421Z,99.90
2019-03-28T02:49:46.448Z,99.90
2019-03-28T02:52:16.546Z,99.90
2019-03-28T02:54:52.462Z,99.90
2019-03-28T02:57:22.515Z,99.90
2019-03-28T03:00:02.492Z,99.90
2019-03-28T03:02:32.694Z,99.90
2019-03-28T03:05:08.226Z,99.90
2019-03-28T03:07:45.121Z,99.90
2019-03-28T03:10:15.280Z,99.90
2019-03-28T03:12:46.311Z,99.90
2019-03-28T03:15:17.438Z,99.90
2019-03-28T03:17:47.495Z,99.90
2019-03-28T03:20:17.757Z,99.90
2019-03-28T03:22:54.519Z,99.90
2019-03-28T03:25:28.706Z,99.90
2019-03-28T03:27:59.390Z,99.90
2019-03-28T03:30:31.429Z,99.90
2019-03-28T03:33:12.469Z,99.90
2019-03-28T03:35:48.335Z,99.90
2019-03-28T03:38:18.408Z,99.90
2019-03-28T03:40:49.525Z,99.90
2019-03-28T03:43:23.150Z,99.90
2019-03-28T03:46:01.637Z,99.90
2019-03-28T03:48:31.936Z,99.90
2019-03-28T03:51:02.011Z,99.90
2019-03-28T03:53:35.024Z,99.90
2019-03-28T03:56:05.099Z,99.90
2019-03-28T03:58:35.182Z,99.90
2019-03-28T04:01:05.307Z,99.90
2019-03-28T04:03:35.387Z,99.90
2019-03-28T04:06:05.466Z,99.90
2019-03-28T04:08:35.548Z,99.90
2019-03-28T04:11:05.619Z,99.90
2019-03-28T04:13:36.491Z,99.90
2019-03-28T04:16:07.591Z,99.90
2019-03-28T04:18:37.682Z,99.90
2019-03-28T04:21:07.752Z,99.90
2019-03-28T04:23:37.818Z,99.90
2019-03-28T04:26:07.899Z,99.90
2019-03-28T04:28:38.972Z,99.90
2019-03-28T04:31:09.330Z,99.90
2019-03-28T04:33:45.424Z,99.90
2019-03-28T04:36:17.480Z,99.90
2019-03-28T04:38:54.477Z,99.90
2019-03-28T04:41:25.508Z,99.90
2019-03-28T04:44:00.509Z,99.90
2019-03-28T04:46:36.703Z,99.90
2019-03-28T04:49:07.731Z,99.90
2019-03-28T04:51:37.790Z,99.90
2019-03-28T04:54:09.953Z,99.90
2019-03-28T04:56:40.348Z,99.90
2019-03-28T04:59:16.114Z,99.90
2019-03-28T05:02:00.870Z,99.90
2019-03-28T05:04:36.411Z,99.90
2019-03-28T05:07:08.479Z,99.90
2019-03-28T05:09:44.666Z,99.90
2019-03-28T05:12:14.743Z,99.90
2019-03-28T05:14:44.915Z,99.90
2019-03-28T05:17:14.995Z,99.90
2019-03-28T05:19:45.067Z,99.90
2019-03-28T05:22:18.207Z,99.90
2019-03-28T05:24:53.311Z,99.90
2019-03-28T05:27:25.407Z,99.90
2019-03-28T05:29:55.480Z,99.90
2019-03-28T05:32:27.571Z,99.90
2019-03-28T05:34:57.647Z,99.90
2019-03-28T05:37:29.637Z,99.90
2019-03-28T05:39:59.707Z,99.90
2019-03-28T05:42:29.954Z,99.90
2019-03-28T05:45:01.976Z,99.90
2019-03-28T05:47:32.987Z,99.90
2019-03-28T05:50:03.059Z,99.90
2019-03-28T05:52:33.175Z,99.90
2019-03-28T05:55:09.147Z,99.90
2019-03-28T05:57:45.258Z,99.90
2019-03-28T06:00:15.521Z,99.90
2019-03-28T06:02:45.615Z,99.90
2019-03-28T06:05:15.707Z,99.90
2019-03-28T06:07:45.843Z,99.90
2019-03-28T06:10:16.600Z,99.90
2019-03-28T06:12:49.935Z,99.90
2019-03-28T06:15:23.331Z,99.90
2019-03-28T06:17:54.599Z,99.90
2019-03-28T06:20:24.685Z,99.90
2019-03-28T06:22:54.759Z,99.90
2019-03-28T06:25:24.843Z,99.90
2019-03-28T06:27:57.619Z,99.90
2019-03-28T06:30:27.715Z,99.90
2019-03-28T06:33:05.860Z,99.90
2019-03-28T06:35:36.065Z,99.90
2019-03-28T06:38:06.143Z,99.90
2019-03-28T06:40:36.252Z,99.90
2019-03-28T06:43:06.308Z,99.90
2019-03-28T06:45:36.564Z,99.90
2019-03-28T06:48:12.499Z,99.90
2019-03-28T06:50:43.531Z,99.90
2019-03-28T06:53:13.650Z,99.90
2019-03-28T06:55:43.727Z,99.90
2019-03-28T06:58:18.692Z,99.90
2019-03-28T07:00:48.791Z,99.90
2019-03-28T07:03:19.848Z,99.90
2019-03-28T07:05:51.914Z,99.90
2019-03-28T07:08:26.690Z,96.80
2019-03-28T07:10:58.218Z,95.90
2019-03-28T07:13:28.542Z,93.40
2019-03-28T07:15:58.714Z,93.80
2019-03-28T07:18:28.796Z,93.30
2019-03-28T07:20:58.898Z,90.40
2019-03-28T07:23:29.035Z,85.40
2019-03-28T07:25:59.246Z,85.60
2019-03-28T07:28:29.363Z,78.70
2019-03-28T07:31:03.127Z,75.90
2019-03-28T07:33:33.262Z,74.50
2019-03-28T07:36:09.251Z,72.10
2019-03-28T07:38:39.354Z,71.80
2019-03-28T07:41:12.446Z,68.70
2019-03-28T07:43:42.552Z,65.20
2019-03-28T07:46:15.636Z,62.00
2019-03-28T07:48:46.299Z,59.30
2019-03-28T07:51:17.447Z,58.50
2019-03-28T07:53:47.649Z,58.30
2019-03-28T07:56:23.315Z,56.30
2019-03-28T07:58:54.344Z,54.40
2019-03-28T08:01:24.462Z,51.20
2019-03-28T08:03:56.508Z,50.40
2019-03-28T08:06:26.720Z,50.00
2019-03-28T08:08:58.768Z,49.00
2019-03-28T08:11:32.428Z,49.60
2019-03-28T08:14:04.430Z,47.70
2019-03-28T08:16:43.510Z,46.90
2019-03-28T08:19:13.618Z,46.70
2019-03-28T08:21:43.722Z,45.70
2019-03-28T08:24:13.802Z,43.40
2019-03-28T08:26:44.816Z,43.70
2019-03-28T08:29:15.822Z,43.70
2019-03-28T08:31:47.714Z,43.30
2019-03-28T08:34:18.611Z,42.80
2019-03-28T08:36:50.779Z,42.40
2019-03-28T08:39:22.870Z,43.20
2019-03-28T08:41:52.951Z,42.20
2019-03-28T08:44:23.072Z,42.10
2019-03-28T08:46:55.156Z,42.50
2019-03-28T08:49:27.154Z,42.60
2019-03-28T08:51:57.250Z,43.00
2019-03-28T08:54:27.403Z,43.10
2019-03-28T08:56:58.383Z,43.90
2019-03-28T08:59:29.398Z,43.70
2019-03-28T09:02:00.360Z,44.20
2019-03-28T09:04:31.362Z,44.90
2019-03-28T09:07:01.300Z,45.60
2019-03-28T09:09:31.407Z,46.10
2019-03-28T09:12:01.501Z,46.70
2019-03-28T09:14:32.080Z,47.50
2019-03-28T09:17:23.940Z,47.40
2019-03-28T09:19:54.046Z,48.70
2019-03-28T09:22:24.174Z,49.80
2019-03-28T09:24:54.278Z,49.40
2019-03-28T09:27:24.350Z,49.20
2019-03-28T09:29:54.464Z,48.90
2019-03-28T09:32:27.424Z,47.20
2019-03-28T09:34:58.608Z,47.80
2019-03-28T09:37:28.685Z,47.10
2019-03-28T09:39:58.793Z,47.70
2019-03-28T09:42:31.922Z,48.20
2019-03-28T09:45:02.050Z,47.50
2019-03-28T09:47:32.154Z,47.20
2019-03-28T09:50:03.820Z,45.20
2019-03-28T09:52:33.887Z,44.90
2019-03-28T09:55:06.414Z,45.30
2019-03-28T09:57:37.382Z,44.10
2019-03-28T10:00:11.423Z,44.20
2019-03-28T10:02:44.092Z,42.90
2019-03-28T10:05:13.679Z,40.50
2019-03-28T10:07:43.770Z,40.60
2019-03-28T10:10:19.676Z,40.90
2019-03-28T10:12:49.775Z,42.10
2019-03-28T10:15:20.076Z,41.50
2019-03-28T10:17:50.166Z,41.20
2019-03-28T10:20:20.264Z,43.00
2019-03-28T10:22:52.307Z,44.90
2019-03-28T10:25:22.384Z,45.80
2019-03-28T10:27:53.363Z,46.90
2019-03-28T10:30:40.370Z,47.10
2019-03-28T10:33:10.594Z,47.20
2019-03-28T10:35:40.855Z,48.00
2019-03-28T10:38:12.066Z,47.30
2019-03-28T10:40:42.167Z,47.40
2019-03-28T10:43:12.272Z,46.70
2019-03-28T10:45:42.365Z,47.50
2019-03-28T10:48:14.000Z,47.60
2019-03-28T10:50:46.031Z,48.70
2019-03-28T10:53:16.268Z,49.00
2019-03-28T10:55:46.370Z,48.80
2019-03-28T10:58:19.180Z,48.70
2019-03-28T11:00:48.270Z,49.10
2019-03-28T11:03:18.375Z,49.40
2019-03-28T11:05:48.479Z,49.00
2019-03-28T11:08:18.571Z,48.50
2019-03-28T11:10:48.699Z,48.60
2019-03-28T11:13:18.780Z,48.40
2019-03-28T11:15:50.855Z,47.70
2019-03-28T11:18:22.854Z,49.10
2019-03-28T11:20:52.939Z,50.70
2019-03-28T11:23:23.036Z,51.90
2019-03-28T11:25:53.137Z,52.10
2019-03-28T11:28:24.283Z,52.70
2019-03-28T11:30:54.363Z,53.10
2019-03-28T11:33:31.321Z,53.80
2019-03-28T11:36:02.307Z,55.10
2019-03-28T11:38:39.267Z,55.60
2019-03-28T11:41:11.323Z,55.90
2019-03-28T11:43:44.343Z,56.00
2019-03-28T11:46:14.439Z,57.00
2019-03-28T11:48:44.515Z,57.80
2019-03-28T11:51:17.679Z,57.90
2019-03-28T11:53:47.763Z,58.10
2019-03-28T11:56:19.754Z,58.50
2019-03-28T11:58:55.582Z,57.70
2019-03-28T12:01:25.664Z,56.60
2019-03-28T12:03:58.823Z,55.60
2019-03-28T12:06:28.907Z,55.20
2019-03-28T12:08:58.988Z,55.80
2019-03-28T12:11:32.326Z,56.40
2019-03-28T12:14:02.404Z,57.00
2019-03-28T12:16:39.951Z,58.40
2019-03-28T12:19:10.055Z,60.00
2019-03-28T12:21:40.160Z,60.30
2019-03-28T12:24:16.966Z,61.00
2019-03-28T12:26:47.066Z,61.50
2019-03-28T12:29:23.906Z,61.60
2019-03-28T12:31:54.159Z,61.90
2019-03-28T12:34:28.407Z,59.20
2019-03-28T12:36:59.394Z,57.40
2019-03-28T12:39:31.367Z,54.40
2019-03-28T12:42:01.456Z,54.00
2019-03-28T12:44:31.551Z,53.20
2019-03-28T12:47:01.663Z,51.80
2019-03-28T12:49:31.862Z,51.00
2019-03-28T12:52:06.611Z,50.00
2019-03-28T12:54:36.728Z,51.10
2019-03-28T12:57:08.747Z,52.60
2019-03-28T12:59:42.027Z,53.80
2019-03-28T13:02:29.888Z,55.30
2019-03-28T13:04:53.156Z,56.20
2019-03-28T13:07:23.234Z,56.50
2019-03-28T13:09:54.315Z,58.70
2019-03-28T13:12:26.352Z,58.80
2019-03-28T13:15:09.365Z,59.50
2019-03-28T13:17:41.413Z,59.80
2019-03-28T13:20:11.919Z,59.90
2019-03-28T13:22:42.475Z,60.30
2019-03-28T13:25:12.555Z,59.70
2019-03-28T13:27:42.753Z,60.00
2019-03-28T13:30:20.375Z,60.00
2019-03-28T13:32:50.506Z,59.90
2019-03-28T13:35:23.847Z,59.30
2019-03-28T13:37:54.939Z,58.80
2019-03-28T13:40:26.156Z,57.40
2019-03-28T13:43:09.275Z,57.30
2019-03-28T13:45:51.435Z,56.40
2019-03-28T13:48:22.423Z,54.80
2019-03-28T13:50:54.794Z,54.40
2019-03-28T13:53:39.577Z,54.60
2019-03-28T13:56:02.715Z,54.80
2019-03-28T13:58:43.451Z,55.90
2019-03-28T14:01:14.427Z,56.80
2019-03-28T14:03:44.519Z,58.10
2019-03-28T14:06:15.284Z,58.50
2019-03-28T14:08:45.407Z,58.60
2019-03-28T14:11:15.543Z,58.20
2019-03-28T14:13:47.818Z,58.20
2019-03-28T14:16:17.907Z,57.80
2019-03-28T14:18:48.882Z,57.30
2019-03-28T14:21:21.999Z,56.40
2019-03-28T14:24:00.966Z,55.80
2019-03-28T14:26:41.158Z,55.50
2019-03-28T14:29:11.271Z,55.40
2019-03-28T14:31:41.426Z,54.70
2019-03-28T14:34:12.466Z,54.90
2019-03-28T14:36:42.544Z,55.60
2019-03-28T14:39:12.703Z,56.20
2019-03-28T14:41:46.253Z,56.70
2019-03-28T14:44:15.843Z,57.20
2019-03-28T14:46:45.955Z,57.40
2019-03-28T14:49:16.135Z,57.60
2019-03-28T14:51:51.871Z,58.40
2019-03-28T14:54:22.389Z,59.40
2019-03-28T14:56:55.422Z,60.00
2019-03-28T14:59:32.566Z,61.10
2019-03-28T15:01:57.610Z,61.30
2019-03-28T15:04:35.477Z,61.80
2019-03-28T15:07:07.291Z,62.00
2019-03-28T15:09:37.337Z,61.90
2019-03-28T15:12:07.430Z,62.10
2019-03-28T15:14:37.518Z,61.90
2019-03-28T15:17:07.699Z,61.50
2019-03-28T15:19:39.012Z,59.80
2019-03-28T15:22:09.094Z,58.90
2019-03-28T15:24:40.074Z,58.60
2019-03-28T15:27:10.170Z,58.10
2019-03-28T15:29:41.210Z,58.30
2019-03-28T15:32:11.311Z,59.00
2019-03-28T15:34:41.390Z,59.80
2019-03-28T15:37:11.542Z,60.00
2019-03-28T15:39:41.665Z,60.80
2019-03-28T15:42:12.642Z,61.50
2019-03-28T15:44:42.747Z,61.80
2019-03-28T15:47:12.914Z,62.50
2019-03-28T15:49:43.010Z,63.50
2019-03-28T15:52:16.531Z,64.20
2019-03-28T15:54:52.432Z,64.80
2019-03-28T15:57:22.521Z,65.20
2019-03-28T15:59:53.598Z,65.40
2019-03-28T16:02:41.636Z,65.50
2019-03-28T16:05:11.780Z,65.80
2019-03-28T16:07:41.958Z,66.30
2019-03-28T16:10:14.939Z,66.60
2019-03-28T16:12:45.348Z,67.20
2019-03-28T16:15:16.294Z,67.80
2019-03-28T16:17:47.644Z,68.70
2019-03-28T16:20:20.850Z,69.90
2019-03-28T16:22:51.836Z,70.60
2019-03-28T16:25:22.847Z,72.00
2019-03-28T16:27:58.710Z,72.60
2019-03-28T16:30:37.622Z,74.20
2019-03-28T16:33:09.089Z,75.70
2019-03-28T16:35:39.185Z,78.00
2019-03-28T16:38:09.303Z,79.80
2019-03-28T16:40:52.367Z,81.20
2019-03-28T16:43:26.989Z,82.20
2019-03-28T16:46:07.836Z,83.20
2019-03-28T16:48:38.066Z,84.00
2019-03-28T16:51:08.158Z,87.60
2019-03-28T16:53:39.208Z,90.40
2019-03-28T16:56:09.519Z,91.80
2019-03-28T16:58:39.606Z,92.20
2019-03-28T17:01:10.643Z,92.30
2019-03-28T17:03:41.627Z,93.20
2019-03-28T17:06:11.783Z,94.20
2019-03-28T17:08:44.394Z,94.80
2019-03-28T17:11:16.639Z,95.10
2019-03-28T17:13:47.755Z,95.70
2019-03-28T17:16:19.944Z,96.50
2019-03-28T17:18:50.039Z,97.10
2019-03-28T17:21:25.027Z,98.30
2019-03-28T17:24:17.315Z,98.50
2019-03-28T17:26:56.994Z,99.40
2019-03-28T17:29:29.136Z,99.90
2019-03-28T17:32:00.231Z,99.90
2019-03-28T17:34:35.236Z,99.90
2019-03-28T17:37:03.360Z,99.90
2019-03-28T17:39:33.459Z,99.90
2019-03-28T17:42:06.092Z,99.90
2019-03-28T17:44:35.335Z,99.90
2019-03-28T17:47:05.479Z,99.90
2019-03-28T17:49:35.671Z,99.90
2019-03-28T17:52:05.769Z,99.90
2019-03-28T17:54:35.887Z,99.90
2019-03-28T17:57:05.984Z,99.90
2019-03-28T17:59:45.196Z,99.90
2019-03-28T18:02:13.973Z,99.90
2019-03-28T18:04:48.095Z,99.90
2019-03-28T18:07:21.579Z,99.90
2019-03-28T18:09:51.671Z,99.90
2019-03-28T18:12:23.724Z,99.90
2019-03-28T18:14:56.771Z,99.90
2019-03-28T18:17:26.855Z,99.90
2019-03-28T18:19:58.906Z,99.90
2019-03-28T18:22:28.995Z,99.90
2019-03-28T18:24:59.087Z,99.90
2019-03-28T18:27:30.080Z,99.90
2019-03-28T18:30:00.240Z,99.90
2019-03-28T18:32:30.411Z,99.90
2019-03-28T18:35:08.489Z,99.90
2019-03-28T18:37:39.633Z,99.90
2019-03-28T18:40:10.751Z,99.90
2019-03-28T18:42:40.820Z,99.90
2019-03-28T18:45:12.775Z,99.90
2019-03-28T18:47:49.621Z,99.90
2019-03-28T18:50:20.836Z,99.90
2019-03-28T18:52:51.827Z,99.90
2019-03-28T18:55:22.017Z,99.90
2019-03-28T18:57:57.973Z,99.90
2019-03-28T19:00:35.046Z,99.90
2019-03-28T19:03:10.904Z,99.90
2019-03-28T19:05:40.998Z,99.90
2019-03-28T19:08:17.635Z,99.90
2019-03-28T19:10:50.688Z,99.90
2019-03-28T19:13:20.515Z,99.90
2019-03-28T19:15:59.567Z,99.90
2019-03-28T19:18:29.759Z,99.90
2019-03-28T19:20:59.839Z,99.90
2019-03-28T19:23:29.936Z,99.90
2019-03-28T19:26:06.155Z,99.90
2019-03-28T19:28:38.931Z,99.90
2019-03-28T19:31:14.772Z,99.90
2019-03-28T19:33:50.575Z,99.90
2019-03-28T19:36:30.763Z,99.90
2019-03-28T19:39:04.127Z,99.90
2019-03-28T19:41:37.379Z,99.90
2019-03-28T19:44:09.258Z,99.90
2019-03-28T19:46:41.211Z,99.90
2019-03-28T19:49:11.317Z,99.90
2019-03-28T19:51:41.387Z,99.90
2019-03-28T19:54:24.920Z,99.90
2019-03-28T19:56:57.377Z,99.90
2019-03-28T19:59:29.462Z,99.90
2019-03-28T20:02:00.111Z,99.90
2019-03-28T20:04:31.092Z,99.90
2019-03-28T20:07:03.099Z,99.90
2019-03-28T20:09:33.175Z,99.90
2019-03-28T20:12:05.378Z,99.90
2019-03-28T20:14:36.686Z,99.90
2019-03-28T20:17:08.750Z,99.90
2019-03-28T20:19:44.966Z,99.90
2019-03-28T20:22:15.042Z,99.90
2019-03-28T20:24:45.151Z,99.90
2019-03-28T20:27:18.159Z,99.90
2019-03-28T20:29:48.256Z,99.90
2019-03-28T20:32:19.424Z,99.90
2019-03-28T20:34:50.556Z,99.90
2019-03-28T20:37:20.634Z,99.90
2019-03-28T20:39:53.710Z,99.90
2019-03-28T20:42:23.982Z,99.90
2019-03-28T20:44:54.043Z,99.90
2019-03-28T20:47:24.767Z,99.90
2019-03-28T20:49:54.915Z,99.90
2019-03-28T20:52:28.167Z,99.90
2019-03-28T20:54:59.022Z,99.90
2019-03-28T20:57:40.344Z,99.90
2019-03-28T21:00:12.932Z,99.90
2019-03-28T21:02:44.186Z,99.90
2019-03-28T21:05:14.867Z,99.90
2019-03-28T21:07:45.031Z,99.90
2019-03-28T21:10:25.961Z,99.90
2019-03-28T21:13:15.709Z,99.90
2019-03-28T21:15:54.547Z,99.90
2019-03-28T21:18:56.665Z,99.90
2019-03-28T21:21:32.370Z,99.90
2019-03-28T21:24:05.576Z,99.90
2019-03-28T21:26:41.113Z,99.90
2019-03-28T21:29:19.267Z,99.90
2019-03-28T21:31:51.973Z,99.90
2019-03-28T21:34:29.891Z,99.90
2019-03-28T21:37:00.066Z,99.90
2019-03-28T21:39:32.076Z,99.90
2019-03-28T21:42:02.155Z,99.90
2019-03-28T21:44:33.083Z,99.90
2019-03-28T21:47:03.143Z,99.90
2019-03-28T21:49:33.214Z,99.90
2019-03-28T21:52:03.314Z,99.90
2019-03-28T21:54:33.568Z,99.90
2019-03-28T21:57:03.663Z,99.90
2019-03-28T21:59:33.795Z,99.90
2019-03-28T22:02:03.905Z,99.90
2019-03-28T22:04:35.856Z,99.90
2019-03-28T22:07:05.974Z,99.90
2019-03-28T22:09:39.770Z,99.90
2019-03-28T22:12:11.354Z,99.90
2019-03-28T22:14:41.488Z,99.90
2019-03-28T22:17:11.615Z,99.90
2019-03-28T22:19:41.753Z,99.90
2019-03-28T22:22:11.859Z,99.90
2019-03-28T22:24:41.971Z,99.90
2019-03-28T22:27:14.043Z,99.90
2019-03-28T22:29:44.130Z,99.90
2019-03-28T22:32:14.203Z,99.90
2019-03-28T22:34:44.300Z,99.90
2019-03-28T22:37:15.347Z,99.90
2019-03-28T22:39:45.603Z,99.90
2019-03-28T22:42:24.355Z,99.90
2019-03-28T22:45:00.695Z,99.90
2019-03-28T22:47:34.824Z,99.90
2019-03-28T22:50:14.695Z,99.90
2019-03-28T22:52:47.351Z,99.90
2019-03-28T22:55:18.073Z,99.90
2019-03-28T22:57:48.643Z,99.90
2019-03-28T23:00:46.357Z,99.90
2019-03-28T23:03:17.771Z,99.90
2019-03-28T23:05:53.316Z,99.90
2019-03-28T23:08:25.447Z,99.90
2019-03-28T23:11:26.749Z,99.90
2019-03-28T23:14:05.885Z,99.90
2019-03-28T23:16:56.309Z,99.90
2019-03-28T23:19:35.692Z,99.90
2019-03-28T23:22:11.278Z,99.90
2019-03-28T23:24:44.516Z,99.90
2019-03-28T23:27:26.997Z,99.90
2019-03-28T23:29:59.847Z,99.90
2019-03-28T23:32:29.947Z,99.90
2019-03-28T23:35:00.053Z,99.90
2019-03-28T23:37:30.140Z,99.90
2019-03-28T23:40:00.350Z,99.90
2019-03-28T23:42:31.276Z,99.90
2019-03-28T23:45:13.145Z,99.90
2019-03-28T23:47:43.691Z,99.90
2019-03-28T23:50:17.752Z,99.90
2019-03-28T23:52:53.591Z,99.90
2019-03-28T23:55:32.347Z,99.90
2019-03-28T23:58:08.707Z,99.90
